createdAt,value
2019-05-13T00:00:23.586Z,7.33
2019-05-13T00:03:00.378Z,7.03
2019-05-13T00:05:30.992Z,5.40
2019-05-13T00:08:07.506Z,6.30
2019-05-13T00:10:38.138Z,7.37
2019-05-13T00:13:08.735Z,3.47
2019-05-13T00:15:39.301Z,4.17
2019-05-13T00:18:09.949Z,8.70
2019-05-13T00:20:40.594Z,6.57
2019-05-13T00:23:11.181Z,8.07
2019-05-13T00:25:44.206Z,5.60
2019-05-13T00:28:19.493Z,11.50
2019-05-13T00:30:50.966Z,5.20
2019-05-13T00:33:27.446Z,2.90
2019-05-13T00:35:58.165Z,6.13
2019-05-13T00:38:28.764Z,6.57
2019-05-13T00:41:00.348Z,5.60
2019-05-13T00:43:33.587Z,6.43
2019-05-13T00:46:03.879Z,7.07
2019-05-13T00:48:35.753Z,7.17
2019-05-13T00:51:06.438Z,2.43
2019-05-13T00:53:37.016Z,5.57
2019-05-13T00:56:07.596Z,4.33
2019-05-13T00:58:40.246Z,9.90
2019-05-13T01:01:10.896Z,4.90
2019-05-13T01:03:44.024Z,6.13
2019-05-13T01:06:13.791Z,6.80
2019-05-13T01:08:44.392Z,8.33
2019-05-13T01:11:15.053Z,6.80
2019-05-13T01:13:45.767Z,8.20
2019-05-13T01:16:16.622Z,8.43
2019-05-13T01:18:47.209Z,8.77
2019-05-13T01:21:17.772Z,11.77
2019-05-13T01:23:48.385Z,5.93
2019-05-13T01:26:18.969Z,7.73
2019-05-13T01:28:53.677Z,7.90
2019-05-13T01:31:24.397Z,7.93
2019-05-13T01:33:55.128Z,5.23
2019-05-13T01:36:25.840Z,6.07
2019-05-13T01:38:56.426Z,5.73
2019-05-13T01:41:30.244Z,9.90
2019-05-13T01:44:04.053Z,8.63
2019-05-13T01:46:37.457Z,7.93
2019-05-13T01:49:09.085Z,4.87
2019-05-13T01:51:40.742Z,6.70
2019-05-13T01:54:14.304Z,5.73
2019-05-13T01:56:45.094Z,9.80
2019-05-13T01:59:15.599Z,11.17
2019-05-13T02:01:49.522Z,7.00
2019-05-13T02:04:20.120Z,6.07
2019-05-13T02:06:50.883Z,6.60
2019-05-13T02:09:29.051Z,7.47
2019-05-13T02:12:01.361Z,12.13
2019-05-13T02:14:39.055Z,7.23
2019-05-13T02:17:14.600Z,5.57
2019-05-13T02:19:49.090Z,6.10
2019-05-13T02:22:25.380Z,6.90
2019-05-13T02:24:59.768Z,8.37
2019-05-13T02:27:32.031Z,6.47
2019-05-13T02:30:10.554Z,6.10
2019-05-13T02:32:43.101Z,10.10
2019-05-13T02:35:15.498Z,8.40
2019-05-13T02:37:47.805Z,6.73
2019-05-13T02:40:22.634Z,5.00
2019-05-13T02:42:53.803Z,5.37
2019-05-13T02:45:25.553Z,5.73
2019-05-13T02:48:03.884Z,8.33
2019-05-13T02:50:36.182Z,9.23
2019-05-13T02:53:08.515Z,8.80
2019-05-13T02:55:43.723Z,7.57
2019-05-13T02:58:16.182Z,6.53
2019-05-13T03:00:48.530Z,11.20
2019-05-13T03:03:23.177Z,10.03
2019-05-13T03:05:54.546Z,6.73
2019-05-13T03:08:39.845Z,8.20
2019-05-13T03:10:58.122Z,5.87
2019-05-13T03:13:32.285Z,7.07
2019-05-13T03:16:13.402Z,6.63
2019-05-13T03:18:52.458Z,11.13
2019-05-13T03:21:24.030Z,8.80
2019-05-13T03:23:55.399Z,5.83
2019-05-13T03:26:33.808Z,9.47
2019-05-13T03:29:05.225Z,6.27
2019-05-13T03:31:36.505Z,11.60
2019-05-13T03:34:08.023Z,6.83
2019-05-13T03:36:45.121Z,9.03
2019-05-13T03:39:16.322Z,7.80
2019-05-13T03:41:46.223Z,10.53
2019-05-13T03:44:18.852Z,7.27
2019-05-13T03:46:53.135Z,10.20
2019-05-13T03:49:25.923Z,8.60
2019-05-13T03:51:57.822Z,10.23
2019-05-13T03:54:34.517Z,6.90
2019-05-13T03:57:05.599Z,9.00
2019-05-13T03:59:36.431Z,8.27
2019-05-13T04:02:07.377Z,8.00
2019-05-13T04:04:42.254Z,8.23
2019-05-13T04:07:12.939Z,7.40
2019-05-13T04:09:44.982Z,10.00
2019-05-13T04:12:15.824Z,9.43
2019-05-13T04:14:46.717Z,7.70
2019-05-13T04:17:17.367Z,10.70
2019-05-13T04:19:48.357Z,7.77
2019-05-13T04:22:23.072Z,11.33
2019-05-13T04:24:53.148Z,12.77
2019-05-13T04:27:23.925Z,7.67
2019-05-13T04:29:54.670Z,10.50
2019-05-13T04:32:28.683Z,12.37
2019-05-13T04:34:58.018Z,13.33
2019-05-13T04:37:28.684Z,8.90
2019-05-13T04:39:59.453Z,9.30
2019-05-13T04:42:33.131Z,8.83
2019-05-13T04:45:03.268Z,10.53
2019-05-13T04:47:34.453Z,9.93
2019-05-13T04:50:08.601Z,10.10
2019-05-13T04:52:45.104Z,8.30
2019-05-13T04:55:22.800Z,12.30
2019-05-13T04:57:53.938Z,8.50
2019-05-13T05:01:07.400Z,11.93
2019-05-13T05:03:45.717Z,11.30
2019-05-13T05:06:26.515Z,9.80
2019-05-13T05:10:13.242Z,7.43
2019-05-13T05:13:12.809Z,11.83
2019-05-13T05:16:13.922Z,7.60
2019-05-13T05:19:24.481Z,9.90
2019-05-13T05:22:13.469Z,12.13
2019-05-13T05:25:03.727Z,10.77
2019-05-13T05:28:11.314Z,9.57
2019-05-13T05:31:14.686Z,9.67
2019-05-13T05:34:21.970Z,11.03
2019-05-13T05:37:22.434Z,11.33
2019-05-13T05:39:55.404Z,10.37
2019-05-13T05:42:28.146Z,12.53
2019-05-13T05:45:02.757Z,14.87
2019-05-13T05:47:35.918Z,9.23
2019-05-13T05:50:06.680Z,14.37
2019-05-13T05:52:38.147Z,11.63
2019-05-13T05:55:11.247Z,8.37
2019-05-13T05:57:42.583Z,13.87
2019-05-13T06:00:13.577Z,12.50
2019-05-13T06:02:46.668Z,11.30
2019-05-13T06:05:21.342Z,13.87
2019-05-13T06:07:52.451Z,12.57
2019-05-13T06:10:27.365Z,9.50
2019-05-13T06:12:58.240Z,11.07
2019-05-13T06:15:31.455Z,11.90
2019-05-13T06:18:11.770Z,13.90
2019-05-13T06:20:48.176Z,12.57
2019-05-13T06:23:18.778Z,10.23
2019-05-13T06:25:49.493Z,15.27
2019-05-13T06:28:26.308Z,13.07
2019-05-13T06:30:57.078Z,12.00
2019-05-13T06:33:27.767Z,11.20
2019-05-13T06:36:04.189Z,17.67
2019-05-13T06:38:34.871Z,9.53
2019-05-13T06:41:11.429Z,15.10
2019-05-13T06:43:41.826Z,16.57
2019-05-13T06:46:17.679Z,12.87
2019-05-13T06:48:48.377Z,8.80
2019-05-13T06:51:18.972Z,14.00
2019-05-13T06:53:54.682Z,14.37
2019-05-13T06:56:25.335Z,14.47
2019-05-13T06:59:04.911Z,10.07
2019-05-13T07:01:35.558Z,22.07
2019-05-13T07:04:06.299Z,17.23
2019-05-13T07:06:37.459Z,6.90
2019-05-13T07:09:08.379Z,10.57
2019-05-13T07:11:45.838Z,11.07
2019-05-13T07:14:16.725Z,18.80
2019-05-13T07:16:47.487Z,11.90
2019-05-13T07:19:18.284Z,11.93
2019-05-13T07:21:49.008Z,8.80
2019-05-13T07:24:26.624Z,13.23
2019-05-13T07:27:04.413Z,12.63
2019-05-13T07:29:42.380Z,7.13
2019-05-13T07:32:13.963Z,7.97
2019-05-13T07:34:45.815Z,10.17
2019-05-13T07:37:16.599Z,8.67
2019-05-13T07:39:47.515Z,10.03
2019-05-13T07:42:18.369Z,8.87
2019-05-13T07:44:49.200Z,11.83
2019-05-13T07:47:22.017Z,10.17
2019-05-13T07:49:52.385Z,7.73
2019-05-13T07:52:24.299Z,12.73
2019-05-13T07:54:54.968Z,11.07
2019-05-13T07:57:26.852Z,11.90
2019-05-13T08:00:05.377Z,11.17
2019-05-13T08:02:36.184Z,15.90
2019-05-13T08:05:14.013Z,8.23
2019-05-13T08:07:44.929Z,12.57
2019-05-13T08:10:25.986Z,10.13
2019-05-13T08:12:56.864Z,9.37
2019-05-13T08:15:27.723Z,8.57
2019-05-13T08:18:01.985Z,12.77
2019-05-13T08:20:32.750Z,9.87
2019-05-13T08:23:03.696Z,7.83
2019-05-13T08:25:34.589Z,7.83
2019-05-13T08:28:06.481Z,7.43
2019-05-13T08:30:38.314Z,7.33
2019-05-13T08:33:12.593Z,6.97
2019-05-13T08:35:46.953Z,7.87
2019-05-13T08:38:24.159Z,7.73
2019-05-13T08:40:56.935Z,8.07
2019-05-13T08:43:31.667Z,10.53
2019-05-13T08:46:03.429Z,11.37
2019-05-13T08:48:35.104Z,7.47
2019-05-13T08:51:05.930Z,6.50
2019-05-13T08:53:36.855Z,4.93
2019-05-13T08:56:13.388Z,5.73
2019-05-13T08:58:44.142Z,6.60
2019-05-13T09:01:15.834Z,7.00
2019-05-13T09:03:53.685Z,4.43
2019-05-13T09:06:24.427Z,3.83
2019-05-13T09:08:56.539Z,5.97
2019-05-13T09:11:27.297Z,3.60
2019-05-13T09:13:58.074Z,8.67
2019-05-13T09:16:31.969Z,6.37
2019-05-13T09:19:03.754Z,8.50
2019-05-13T09:21:34.939Z,8.90
2019-05-13T09:24:20.821Z,6.57
2019-05-13T09:26:38.299Z,5.70
2019-05-13T09:29:11.883Z,8.83
2019-05-13T09:31:42.556Z,5.30
2019-05-13T09:34:14.394Z,6.40
2019-05-13T09:36:45.076Z,6.07
2019-05-13T09:39:15.831Z,7.43
2019-05-13T09:41:46.574Z,4.70
2019-05-13T09:44:17.427Z,9.63
2019-05-13T09:46:51.564Z,6.63
2019-05-13T09:49:23.679Z,4.77
2019-05-13T09:51:54.111Z,4.50
2019-05-13T09:54:24.766Z,5.27
2019-05-13T09:56:55.619Z,5.37
2019-05-13T09:59:26.300Z,6.07
2019-05-13T10:01:57.093Z,6.23
2019-05-13T10:04:27.930Z,5.53
2019-05-13T10:07:01.545Z,5.50
2019-05-13T10:09:32.605Z,6.07
2019-05-13T10:12:04.399Z,4.50
2019-05-13T10:14:35.093Z,3.93
2019-05-13T10:17:13.184Z,3.93
2019-05-13T10:19:47.128Z,5.13
2019-05-13T10:22:18.362Z,4.97
2019-05-13T10:24:53.256Z,4.37
2019-05-13T10:27:27.406Z,2.80
2019-05-13T10:29:59.399Z,6.77
2019-05-13T10:32:32.434Z,5.07
2019-05-13T10:35:03.617Z,5.00
2019-05-13T10:37:36.463Z,5.10
2019-05-13T10:40:07.378Z,5.40
2019-05-13T10:42:38.343Z,6.57
2019-05-13T10:45:09.174Z,5.50
2019-05-13T10:47:43.700Z,6.43
2019-05-13T10:50:16.576Z,2.63
2019-05-13T10:52:48.431Z,8.33
2019-05-13T10:55:27.351Z,4.87
2019-05-13T10:58:03.904Z,6.07
2019-05-13T11:00:43.779Z,8.93
2019-05-13T11:03:25.699Z,4.60
2019-05-13T11:05:56.487Z,6.53
2019-05-13T11:08:28.281Z,3.57
2019-05-13T11:11:02.259Z,2.53
2019-05-13T11:13:50.603Z,6.03
2019-05-13T11:16:06.675Z,4.47
2019-05-13T11:18:41.594Z,2.67
2019-05-13T11:21:16.080Z,4.23
2019-05-13T11:23:55.924Z,5.10
2019-05-13T11:26:28.680Z,4.20
2019-05-13T11:29:02.811Z,3.77
2019-05-13T11:31:33.772Z,4.40
2019-05-13T11:34:04.659Z,3.43
2019-05-13T11:36:37.180Z,5.10
2019-05-13T11:39:08.956Z,3.80
2019-05-13T11:41:43.804Z,6.40
2019-05-13T11:44:16.908Z,2.87
2019-05-13T11:46:47.132Z,1.50
2019-05-13T11:49:17.860Z,3.50
2019-05-13T11:51:48.708Z,5.83
2019-05-13T11:54:26.430Z,4.97
2019-05-13T11:57:07.231Z,4.37
2019-05-13T11:59:37.934Z,4.23
2019-05-13T12:02:14.641Z,3.87
2019-05-13T12:04:45.350Z,3.33
2019-05-13T12:07:16.122Z,4.33
2019-05-13T12:09:47.965Z,5.80
2019-05-13T12:12:18.801Z,3.57
2019-05-13T12:15:20.493Z,6.27
2019-05-13T12:17:22.670Z,3.00
2019-05-13T12:19:55.572Z,4.17
2019-05-13T12:22:30.011Z,2.57
2019-05-13T12:25:02.053Z,4.00
2019-05-13T12:27:33.108Z,4.37
2019-05-13T12:30:13.335Z,3.50
2019-05-13T12:32:44.042Z,8.00
2019-05-13T12:35:14.828Z,2.87
2019-05-13T12:37:48.999Z,2.57
2019-05-13T12:40:22.774Z,2.73
2019-05-13T12:42:58.223Z,3.17
2019-05-13T12:45:29.140Z,2.47
2019-05-13T12:48:14.009Z,5.63
2019-05-13T12:50:43.669Z,2.30
2019-05-13T12:53:15.475Z,2.93
2019-05-13T12:55:53.788Z,5.47
2019-05-13T12:58:25.784Z,3.17
2019-05-13T13:00:56.615Z,1.67
2019-05-13T13:03:28.410Z,3.60
2019-05-13T13:08:47.409Z,2.77
2019-05-13T13:11:11.992Z,3.60
2019-05-13T13:16:16.319Z,2.93
2019-05-13T13:18:47.035Z,2.93
2019-05-13T13:21:17.830Z,4.13
2019-05-13T13:23:50.738Z,3.60
2019-05-13T13:26:25.451Z,3.23
2019-05-13T13:28:57.259Z,1.90
2019-05-13T13:31:28.107Z,3.50
2019-05-13T13:34:10.951Z,4.37
2019-05-13T13:36:33.639Z,2.50
2019-05-13T13:39:08.346Z,3.70
2019-05-13T13:41:39.225Z,2.43
2019-05-13T13:44:14.392Z,5.00
2019-05-13T13:46:49.310Z,6.00
2019-05-13T13:49:23.567Z,3.07
2019-05-13T13:51:54.438Z,2.23
2019-05-13T13:54:33.551Z,4.03
2019-05-13T13:57:03.139Z,2.60
2019-05-13T14:00:13.742Z,3.23
2019-05-13T14:02:13.470Z,5.57
2019-05-13T14:04:43.365Z,5.23
2019-05-13T14:06:50.057Z,7.03
2019-05-13T14:07:26.540Z,4.47
2019-05-13T14:09:48.084Z,3.47
2019-05-13T14:12:37.420Z,3.27
2019-05-13T14:15:10.043Z,5.10
2019-05-13T14:17:41.560Z,3.13
2019-05-13T14:20:16.817Z,3.80
2019-05-13T14:22:47.723Z,2.13
2019-05-13T14:25:18.528Z,2.77
2019-05-13T14:27:52.594Z,2.77
2019-05-13T14:30:26.266Z,5.40
2019-05-13T14:32:58.044Z,2.70
2019-05-13T14:35:28.797Z,5.77
2019-05-13T14:38:21.888Z,2.73
2019-05-13T14:40:54.678Z,3.57
2019-05-13T14:43:26.401Z,2.53
2019-05-13T14:45:57.194Z,3.17
2019-05-13T14:48:32.542Z,3.77
2019-05-13T14:51:07.677Z,3.80
2019-05-13T14:53:41.762Z,3.60
2019-05-13T14:56:23.912Z,3.37
2019-05-13T14:58:44.827Z,3.20
2019-05-13T15:01:22.287Z,3.23
2019-05-13T15:03:48.207Z,4.50
2019-05-13T15:06:21.562Z,3.77
2019-05-13T15:09:01.757Z,5.77
2019-05-13T15:11:33.560Z,5.17
2019-05-13T15:14:11.848Z,4.43
2019-05-13T15:16:42.725Z,1.57
2019-05-13T15:19:13.514Z,2.40
2019-05-13T15:21:47.728Z,2.93
2019-05-13T15:24:21.317Z,2.73
2019-05-13T15:26:59.871Z,6.43
2019-05-13T15:29:31.358Z,3.60
2019-05-13T15:32:02.351Z,5.13
2019-05-13T15:34:38.458Z,3.30
2019-05-13T15:37:11.250Z,4.20
2019-05-13T15:39:43.037Z,3.43
2019-05-13T15:42:31.900Z,6.23
2019-05-13T15:45:02.973Z,3.90
2019-05-13T15:47:51.593Z,3.83
2019-05-13T15:50:23.274Z,4.17
2019-05-13T15:52:53.935Z,2.90
2019-05-13T15:55:28.010Z,3.17
2019-05-13T15:57:58.800Z,3.23
2019-05-13T16:00:29.608Z,3.77
2019-05-13T16:03:02.283Z,3.73
2019-05-13T16:05:33.002Z,4.03
2019-05-13T16:08:04.226Z,3.43
2019-05-13T16:10:34.979Z,4.30
2019-05-13T16:13:05.571Z,4.33
2019-05-13T16:15:36.329Z,4.60
2019-05-13T16:18:07.997Z,4.20
2019-05-13T16:20:42.598Z,3.53
2019-05-13T16:23:13.332Z,2.97
2019-05-13T16:25:44.293Z,2.70
2019-05-13T16:28:14.943Z,3.20
2019-05-13T16:30:51.544Z,2.67
2019-05-13T16:33:21.909Z,4.20
2019-05-13T16:35:52.672Z,3.63
2019-05-13T16:38:23.473Z,3.20
2019-05-13T16:40:54.340Z,3.33
2019-05-13T16:43:25.997Z,3.87
2019-05-13T16:45:57.016Z,4.93
2019-05-13T16:48:28.028Z,2.30
2019-05-13T16:51:00.690Z,3.73
2019-05-13T16:53:31.746Z,6.67
2019-05-13T16:56:06.239Z,4.47
2019-05-13T16:58:38.885Z,4.30
2019-05-13T17:01:11.811Z,4.53
2019-05-13T17:03:44.086Z,4.67
2019-05-13T17:06:14.782Z,3.37
2019-05-13T17:08:45.708Z,6.50
2019-05-13T17:11:16.408Z,5.57
2019-05-13T17:13:53.953Z,6.20
2019-05-13T17:16:34.388Z,2.90
2019-05-13T17:19:05.182Z,4.73
2019-05-13T17:21:36.217Z,8.57
2019-05-13T17:24:12.399Z,8.83
2019-05-13T17:26:42.478Z,3.97
2019-05-13T17:29:14.078Z,4.20
2019-05-13T17:31:44.810Z,2.50
2019-05-13T17:34:21.531Z,4.20
2019-05-13T17:36:52.207Z,4.50
2019-05-13T17:39:28.999Z,4.97
2019-05-13T17:42:01.438Z,3.83
2019-05-13T17:44:33.025Z,7.87
2019-05-13T17:47:04.837Z,3.57
2019-05-13T17:49:41.747Z,4.50
2019-05-13T17:52:11.975Z,3.03
2019-05-13T17:54:42.927Z,3.70
2019-05-13T17:57:14.761Z,4.27
2019-05-13T17:59:45.380Z,3.23
2019-05-13T18:02:21.138Z,3.53
2019-05-13T18:05:02.038Z,3.83
2019-05-13T18:07:32.957Z,3.87
2019-05-13T18:10:03.630Z,5.93
2019-05-13T18:12:41.789Z,3.20
2019-05-13T18:15:13.694Z,4.23
2019-05-13T18:17:44.390Z,4.40
2019-05-13T18:20:15.065Z,4.37
2019-05-13T18:22:48.066Z,5.87
2019-05-13T18:25:18.795Z,4.73
2019-05-13T18:27:52.157Z,2.37
2019-05-13T18:30:23.140Z,3.67
2019-05-13T18:32:57.517Z,2.50
2019-05-13T18:35:31.754Z,3.10
2019-05-13T18:38:04.537Z,2.63
2019-05-13T18:40:35.345Z,4.67
2019-05-13T18:43:06.976Z,2.90
2019-05-13T18:45:37.587Z,3.73
2019-05-13T18:48:12.374Z,3.50
2019-05-13T18:50:43.157Z,3.57
2019-05-13T18:53:14.005Z,1.63
2019-05-13T18:55:44.632Z,2.83
2019-05-13T18:58:23.110Z,3.97
2019-05-13T19:01:08.124Z,3.87
2019-05-13T19:03:41.502Z,3.60
2019-05-13T19:06:12.240Z,3.07
2019-05-13T19:08:47.416Z,3.23
2019-05-13T19:11:18.340Z,1.80
2019-05-13T19:13:49.056Z,2.70
2019-05-13T19:16:21.418Z,2.57
2019-05-13T19:18:54.365Z,2.37
2019-05-13T19:21:25.058Z,2.13
2019-05-13T19:23:55.887Z,3.07
2019-05-13T19:26:28.552Z,3.40
2019-05-13T19:28:59.158Z,1.47
2019-05-13T19:31:29.843Z,4.80
2019-05-13T19:34:01.462Z,1.37
2019-05-13T19:36:33.226Z,3.63
2019-05-13T19:39:06.335Z,2.63
2019-05-13T19:41:37.048Z,3.93
2019-05-13T19:44:08.834Z,4.67
2019-05-13T19:46:42.134Z,4.97
2019-05-13T19:49:27.373Z,2.77
2019-05-13T19:51:44.984Z,1.93
2019-05-13T19:54:15.710Z,3.13
2019-05-13T19:56:53.129Z,1.20
2019-05-13T19:59:27.095Z,6.13
2019-05-13T20:02:09.187Z,3.80
2019-05-13T20:04:41.389Z,2.60
2019-05-13T20:07:12.723Z,3.50
2019-05-13T20:09:51.829Z,3.83
2019-05-13T20:12:23.162Z,2.97
2019-05-13T20:15:01.235Z,3.33
2019-05-13T20:17:33.111Z,2.10
2019-05-13T20:20:07.789Z,1.27
2019-05-13T20:22:42.242Z,3.30
2019-05-13T20:25:13.335Z,2.00
2019-05-13T20:27:45.455Z,2.93
2019-05-13T20:30:18.013Z,5.03
2019-05-13T20:32:48.774Z,3.10
2019-05-13T20:35:23.503Z,3.27
2019-05-13T20:37:55.229Z,2.07
2019-05-13T20:40:26.992Z,2.40
2019-05-13T20:43:01.805Z,1.80
2019-05-13T20:45:32.548Z,2.37
2019-05-13T20:48:04.019Z,1.97
2019-05-13T20:50:34.727Z,2.63
2019-05-13T20:53:05.652Z,2.47
2019-05-13T20:55:36.825Z,2.50
2019-05-13T20:58:07.743Z,3.90
2019-05-13T21:00:38.717Z,2.63
2019-05-13T21:03:11.555Z,2.47
2019-05-13T21:05:41.932Z,1.23
2019-05-13T21:08:12.761Z,3.37
2019-05-13T21:10:43.448Z,2.73
2019-05-13T21:13:14.216Z,3.00
2019-05-13T21:15:45.712Z,1.50
2019-05-13T21:18:32.206Z,3.73
2019-05-13T21:21:02.927Z,2.57
2019-05-13T21:23:33.605Z,3.20
2019-05-13T21:26:04.691Z,4.83
2019-05-13T21:28:35.269Z,1.67
2019-05-13T21:31:06.107Z,3.80
2019-05-13T21:33:36.799Z,3.90
2019-05-13T21:36:07.733Z,1.57
2019-05-13T21:38:38.704Z,2.70
2019-05-13T21:41:11.657Z,3.97
2019-05-13T21:43:43.900Z,2.73
2019-05-13T21:46:15.321Z,2.47
2019-05-13T21:48:47.024Z,1.17
2019-05-13T21:51:31.485Z,2.83
2019-05-13T21:54:02.406Z,2.33
2019-05-13T21:56:32.997Z,1.93
2019-05-13T21:59:04.434Z,2.23
2019-05-13T22:01:35.904Z,3.13
2019-05-13T22:04:06.857Z,1.93
2019-05-13T22:06:43.994Z,3.83
2019-05-13T22:09:14.815Z,1.87
2019-05-13T22:11:52.683Z,2.40
2019-05-13T22:14:23.450Z,3.93
2019-05-13T22:16:56.493Z,7.77
2019-05-13T22:19:26.524Z,2.10
2019-05-13T22:21:57.177Z,1.97
2019-05-13T22:24:27.739Z,2.67
2019-05-13T22:27:03.900Z,2.03
2019-05-13T22:29:42.837Z,2.20
2019-05-13T22:32:13.553Z,4.93
2019-05-13T22:34:44.149Z,2.27
2019-05-13T22:37:14.970Z,2.77
2019-05-13T22:40:06.385Z,2.80
2019-05-13T22:42:37.229Z,2.30
2019-05-13T22:45:07.993Z,2.60
2019-05-13T22:47:38.683Z,2.70
2019-05-13T22:50:11.489Z,3.10
2019-05-13T22:52:42.830Z,2.20
2019-05-13T22:55:18.714Z,2.30
2019-05-13T22:57:51.460Z,2.67
2019-05-13T23:00:22.487Z,3.20
2019-05-13T23:02:53.148Z,3.17
2019-05-13T23:05:23.832Z,2.73
2019-05-13T23:08:02.043Z,5.33
2019-05-13T23:10:32.252Z,4.50
2019-05-13T23:13:03.611Z,3.27
2019-05-13T23:15:34.468Z,4.50
2019-05-13T23:18:05.190Z,1.53
2019-05-13T23:20:41.734Z,1.53
2019-05-13T23:23:12.484Z,4.07
2019-05-13T23:25:47.459Z,2.60
2019-05-13T23:28:18.582Z,2.33
2019-05-13T23:30:51.223Z,2.67
2019-05-13T23:33:31.370Z,3.10
2019-05-13T23:36:02.370Z,4.33
2019-05-13T23:38:33.315Z,1.63
2019-05-13T23:41:04.940Z,3.40
2019-05-13T23:43:35.775Z,4.57
2019-05-13T23:46:06.363Z,2.87
2019-05-13T23:48:37.380Z,3.57
2019-05-13T23:51:14.072Z,2.47
2019-05-13T23:53:46.301Z,4.37
2019-05-13T23:56:17.171Z,4.33
2019-05-13T23:58:47.892Z,5.07
